Time;durP1;ratioP1;P1;durP2;ratioP2;P2;SDS_P1;SDS_P2;PMS_P1;PMS_P2;Temp;Humidity;BMP_temperature;BMP_pressure;BME280_temperature;BME280_humidity;BME280_pressure;Samples;Min_cycle;Max_cycle;Signal;HPM_P1;HPM_P2
2021/11/26 00:00:46;;;;;;;45.97;19.10;;;;;;;;;;5028268;28;20093;-89
2021/11/26 00:03:12;;;;;;;52.13;22.38;;;;;;;;;;5037219;28;20010;-92
2021/11/26 00:05:39;;;;;;;54.05;20.40;;;;;;;;;;5037531;28;20117;-93
2021/11/26 00:08:05;;;;;;;53.90;22.15;;;;;;;;;;5037392;28;20048;-93
2021/11/26 00:10:31;;;;;;;57.58;24.10;;;;;;;;;;5037122;28;20038;-93
2021/11/26 00:13:01;;;;;;;49.67;20.77;;;;;;;;;;5038367;28;20053;-95
2021/11/26 00:17:56;;;;;;;50.40;20.77;;;;;;;;;;5037349;28;20029;-94
2021/11/26 00:20:22;;;;;;;44.72;19.65;;;;;;;;;;5033731;28;20073;-95
2021/11/26 00:22:49;;;;;;;50.45;21.40;;;;;;;;;;5033217;28;20036;-94
2021/11/26 00:25:15;;;;;;;54.42;22.45;;;;;;;;;;5032839;28;20045;-92
2021/11/26 00:27:41;;;;;;;50.80;20.65;;;;;;;;;;5033863;28;20040;-92
2021/11/26 00:30:08;;;;;;;57.28;22.00;;;;;;;;;;5030407;28;20018;-93
2021/11/26 00:32:34;;;;;;;52.13;21.42;;;;;;;;;;5028519;28;20056;-93
2021/11/26 00:35:00;;;;;;;47.97;19.98;;;;;;;;;;5018207;28;20057;-93
2021/11/26 00:37:27;;;;;;;42.00;19.02;;;;;;;;;;5019083;28;20053;-94
2021/11/26 00:39:53;;;;;;;49.17;20.60;;;;;;;;;;5018658;28;20034;-91
2021/11/26 00:42:20;;;;;;;45.83;18.77;;;;;;;;;;5017357;28;20121;-94
2021/11/26 00:44:46;;;;;;;44.63;19.63;;;;;;;;;;5018561;28;20029;-93
2021/11/26 00:47:12;;;;;;;44.25;20.00;;;;;;;;;;5021331;28;20038;-90
2021/11/26 00:49:38;;;;;;;47.58;19.92;;;;;;;;;;5022612;28;20126;-94
2021/11/26 00:52:05;;;;;;;45.50;20.40;;;;;;;;;;5021154;28;20038;-93
2021/11/26 00:54:31;;;;;;;45.38;19.75;;;;;;;;;;5021392;28;20058;-93
2021/11/26 00:56:58;;;;;;;44.53;19.88;;;;;;;;;;5022143;28;20026;-94
2021/11/26 00:59:24;;;;;;;48.35;19.27;;;;;;;;;;5016637;28;20106;-94
2021/11/26 01:01:50;;;;;;;46.22;20.27;;;;;;;;;;4985995;28;20034;-94
2021/11/26 01:04:17;;;;;;;44.45;18.58;;;;;;;;;;4984967;28;20022;-95
2021/11/26 01:06:43;;;;;;;41.90;18.80;;;;;;;;;;4985109;28;20043;-94
2021/11/26 01:09:10;;;;;;;44.72;18.50;;;;;;;;;;4984046;28;20430;-93
2021/11/26 01:11:36;;;;;;;42.33;18.65;;;;;;;;;;4986141;28;20482;-93
2021/11/26 01:14:02;;;;;;;42.58;19.13;;;;;;;;;;4985677;28;20037;-95
2021/11/26 01:16:29;;;;;;;47.97;20.65;;;;;;;;;;4985042;28;20030;-93
2021/11/26 01:18:55;;;;;;;44.38;19.98;;;;;;;;;;4984039;28;20128;-94
2021/11/26 01:21:21;;;;;;;44.47;19.85;;;;;;;;;;4985258;28;20031;-94
2021/11/26 01:23:48;;;;;;;43.70;19.25;;;;;;;;;;4985144;28;20037;-94
2021/11/26 01:26:14;;;;;;;46.58;19.80;;;;;;;;;;4989911;28;20030;-95
2021/11/26 01:28:41;;;;;;;41.50;19.00;;;;;;;;;;4997893;28;20122;-95
2021/11/26 01:31:07;;;;;;;44.75;20.13;;;;;;;;;;4989294;28;20084;-94
2021/11/26 01:33:33;;;;;;;46.92;20.48;;;;;;;;;;4988009;28;20026;-94
2021/11/26 01:36:00;;;;;;;45.33;20.10;;;;;;;;;;4987563;28;20030;-94
2021/11/26 01:38:27;;;;;;;45.13;19.02;;;;;;;;;;4984893;28;20050;-95
2021/11/26 01:40:53;;;;;;;44.45;20.52;;;;;;;;;;4986298;28;20026;-95
2021/11/26 01:43:20;;;;;;;46.13;19.13;;;;;;;;;;4985071;28;20058;-95
2021/11/26 01:45:49;;;;;;;47.30;19.15;;;;;;;;;;5001390;28;20030;-96
2021/11/26 01:48:17;;;;;;;44.95;18.45;;;;;;;;;;5003157;28;20039;-94
2021/11/26 01:50:43;;;;;;;38.70;17.52;;;;;;;;;;4985025;28;20092;-93
2021/11/26 01:53:11;;;;;;;43.72;18.77;;;;;;;;;;4985870;28;20493;-92
2021/11/26 01:55:38;;;;;;;37.05;18.02;;;;;;;;;;5021524;28;20042;-86
2021/11/26 01:58:04;;;;;;;46.25;19.75;;;;;;;;;;5003941;28;20058;-89
2021/11/26 02:00:32;;;;;;;47.30;19.67;;;;;;;;;;4996984;28;20081;-95
2021/11/26 02:03:00;;;;;;;39.33;18.02;;;;;;;;;;4985031;28;20045;-95
2021/11/26 02:05:26;;;;;;;47.13;17.83;;;;;;;;;;4983938;28;20018;-93
2021/11/26 02:07:53;;;;;;;40.15;17.70;;;;;;;;;;4982759;28;20073;-93
2021/11/26 02:10:19;;;;;;;43.00;18.17;;;;;;;;;;4985142;28;20033;-94
2021/11/26 02:12:45;;;;;;;47.08;18.63;;;;;;;;;;4983995;28;20027;-95
2021/11/26 02:15:16;;;;;;;46.03;19.73;;;;;;;;;;5000762;28;20038;-92
2021/11/26 02:17:43;;;;;;;44.63;18.23;;;;;;;;;;5002650;28;20037;-95
2021/11/26 02:20:19;;;;;;;42.83;18.80;;;;;;;;;;4984948;28;20050;-94
2021/11/26 02:22:46;;;;;;;44.55;17.95;;;;;;;;;;4987501;28;20033;-94
2021/11/26 02:25:12;;;;;;;41.25;18.77;;;;;;;;;;4987220;28;20030;-95
2021/11/26 02:27:39;;;;;;;45.97;19.55;;;;;;;;;;4991745;28;20041;-95
2021/11/26 02:30:16;;;;;;;45.63;19.10;;;;;;;;;;4990504;28;20029;-95
2021/11/26 02:32:45;;;;;;;39.33;18.48;;;;;;;;;;4987569;28;20026;-93
2021/11/26 02:35:12;;;;;;;50.88;17.98;;;;;;;;;;4986582;28;20062;-95
2021/11/26 02:37:40;;;;;;;45.92;19.60;;;;;;;;;;4985805;28;20037;-96
2021/11/26 02:40:07;;;;;;;47.58;19.05;;;;;;;;;;4989670;28;20026;-95
2021/11/26 02:42:35;;;;;;;44.45;19.50;;;;;;;;;;5002927;28;20023;-95
2021/11/26 02:45:18;;;;;;;46.15;19.25;;;;;;;;;;5007041;28;20091;-95
2021/11/26 02:47:44;;;;;;;50.63;20.17;;;;;;;;;;5004792;28;20053;-96
2021/11/26 02:50:11;;;;;;;43.85;19.70;;;;;;;;;;4984811;28;20030;-95
2021/11/26 02:52:39;;;;;;;44.75;19.48;;;;;;;;;;5001070;28;20050;-95
2021/11/26 02:55:07;;;;;;;48.60;21.02;;;;;;;;;;4985810;28;20022;-94
2021/11/26 02:57:34;;;;;;;45.50;18.70;;;;;;;;;;4987213;28;20514;-96
2021/11/26 03:00:06;;;;;;;47.05;20.73;;;;;;;;;;4988981;28;20042;-94
2021/11/26 03:02:32;;;;;;;44.95;19.17;;;;;;;;;;4990540;28;20050;-96
2021/11/26 03:05:21;;;;;;;45.83;19.58;;;;;;;;;;4994453;28;20033;-95
2021/11/26 03:07:51;;;;;;;46.75;19.95;;;;;;;;;;5015043;28;20018;-96
2021/11/26 03:10:30;;;;;;;40.83;19.20;;;;;;;;;;5013783;28;20034;-96
2021/11/26 03:12:59;;;;;;;41.33;17.48;;;;;;;;;;5000716;28;20078;-93
2021/11/26 03:15:28;;;;;;;43.15;17.95;;;;;;;;;;4998871;28;20039;-93
2021/11/26 03:18:20;;;;;;;46.78;18.63;;;;;;;;;;5000369;28;20019;-95
2021/11/26 03:24:29;;;;;;;46.90;18.65;;;;;;;;;;5019045;28;20066;-95
2021/11/26 03:30:22;;;;;;;51.17;19.97;;;;;;;;;;5019899;28;20041;-88
2021/11/26 03:39:10;;;;;;;44.92;18.80;;;;;;;;;;5019057;28;20037;-96
2021/11/26 03:44:38;;;;;;;44.97;18.58;;;;;;;;;;3754492;22;20049;-91
2021/11/26 03:47:06;;;;;;;42.65;19.17;;;;;;;;;;5037827;28;20022;-88
2021/11/26 03:50:09;;;;;;;54.58;21.15;;;;;;;;;;5036636;28;20058;-93
2021/11/26 03:53:19;;;;;;;46.58;19.38;;;;;;;;;;4939685;28;20016;-84
2021/11/26 03:55:45;;;;;;;44.83;19.85;;;;;;;;;;4966573;28;20034;-89
2021/11/26 03:58:16;;;;;;;54.70;20.90;;;;;;;;;;5038069;28;20029;-86
2021/11/26 04:00:45;;;;;;;47.85;20.77;;;;;;;;;;5037292;28;20029;-94
2021/11/26 04:03:14;;;;;;;45.92;20.80;;;;;;;;;;5043592;23;20084;-96
2021/11/26 04:06:05;;;;;;;48.83;20.05;;;;;;;;;;5016817;28;20479;-96
2021/11/26 04:08:56;;;;;;;45.25;19.90;;;;;;;;;;5033637;28;20031;-96
2021/11/26 04:11:53;;;;;;;44.22;18.65;;;;;;;;;;4996199;28;20046;-91
2021/11/26 04:14:35;;;;;;;43.60;19.48;;;;;;;;;;4982614;28;20029;-92
2021/11/26 04:17:37;;;;;;;47.15;20.85;;;;;;;;;;4998637;28;20022;-94
2021/11/26 04:20:38;;;;;;;48.15;19.63;;;;;;;;;;4976816;28;20027;-96
2021/11/26 04:23:48;;;;;;;47.13;18.90;;;;;;;;;;4977818;28;20016;-92
2021/11/26 04:26:18;;;;;;;55.10;19.70;;;;;;;;;;4977550;28;20047;-96
2021/11/26 04:28:48;;;;;;;54.78;21.50;;;;;;;;;;4960871;28;20106;-96
2021/11/26 04:31:34;;;;;;;51.72;19.17;;;;;;;;;;4964257;28;20047;-84
2021/11/26 04:34:48;;;;;;;48.45;19.95;;;;;;;;;;4934993;29;20040;-96
2021/11/26 04:37:44;;;;;;;43.35;18.73;;;;;;;;;;4923369;29;20063;-95
2021/11/26 04:46:13;;;;;;;52.60;20.75;;;;;;;;;;4969387;28;20082;-96
2021/11/26 04:54:47;;;;;;;53.15;21.13;;;;;;;;;;5006531;28;20089;-85
2021/11/26 04:57:19;;;;;;;56.42;21.38;;;;;;;;;;5009245;28;20026;-95
2021/11/26 04:59:45;;;;;;;47.42;20.30;;;;;;;;;;5011658;28;20062;-93
2021/11/26 05:02:37;;;;;;;50.45;19.88;;;;;;;;;;5014265;28;20034;-96
2021/11/26 05:05:09;;;;;;;52.90;20.55;;;;;;;;;;5016094;28;20030;-96
2021/11/26 05:07:46;;;;;;;54.60;21.20;;;;;;;;;;5013017;28;20062;-93
2021/11/26 05:10:19;;;;;;;52.60;23.35;;;;;;;;;;5015615;28;20025;-94
2021/11/26 05:12:57;;;;;;;49.55;21.73;;;;;;;;;;5015066;28;20058;-92
2021/11/26 05:15:24;;;;;;;51.10;21.65;;;;;;;;;;5011157;28;20037;-94
2021/11/26 05:17:59;;;;;;;51.40;21.35;;;;;;;;;;4994766;28;20034;-93
2021/11/26 05:20:48;;;;;;;44.55;20.80;;;;;;;;;;5014575;28;20030;-85
2021/11/26 05:23:26;;;;;;;55.58;22.35;;;;;;;;;;5015094;28;20038;-92
2021/11/26 05:26:06;;;;;;;52.67;22.25;;;;;;;;;;5027206;28;20066;-95
2021/11/26 05:28:40;;;;;;;63.22;23.73;;;;;;;;;;5018221;28;20010;-93
2021/11/26 05:31:06;;;;;;;;;;;;;;;;;;5018181;28;20013;-91
2021/11/26 05:33:45;;;;;;;50.03;19.48;;;;;;;;;;5020441;28;19912;-88
2021/11/26 05:36:35;;;;;;;50.75;20.63;;;;;;;;;;5033817;28;20045;-89
2021/11/26 05:39:02;;;;;;;52.80;21.85;;;;;;;;;;5018059;28;20057;-95
2021/11/26 05:41:35;;;;;;;49.17;22.42;;;;;;;;;;5039987;28;20060;-92
2021/11/26 05:44:01;;;;;;;50.08;20.73;;;;;;;;;;5035876;28;20065;-93
2021/11/26 05:46:28;;;;;;;42.42;20.73;;;;;;;;;;5002830;28;20021;-91
2021/11/26 05:48:54;;;;;;;60.85;22.77;;;;;;;;;;5005562;28;20037;-94
2021/11/26 05:51:20;;;;;;;51.40;21.60;;;;;;;;;;5006816;28;20022;-95
2021/11/26 05:53:46;;;;;;;48.03;20.55;;;;;;;;;;5005348;28;20033;-93
2021/11/26 05:56:12;;;;;;;49.90;21.88;;;;;;;;;;5003552;28;20023;-93
2021/11/26 05:58:39;;;;;;;50.25;20.77;;;;;;;;;;5017838;28;20038;-94
2021/11/26 06:01:05;;;;;;;48.35;20.55;;;;;;;;;;5020236;28;20022;-92
2021/11/26 06:03:31;;;;;;;53.35;22.70;;;;;;;;;;5019125;28;20084;-94
2021/11/26 06:05:57;;;;;;;56.03;22.80;;;;;;;;;;5021111;28;20382;-95
2021/11/26 06:08:24;;;;;;;59.35;21.98;;;;;;;;;;5020673;28;20029;-91
2021/11/26 06:10:50;;;;;;;48.88;20.48;;;;;;;;;;5026579;28;20002;-94
2021/11/26 06:13:20;;;;;;;45.92;19.27;;;;;;;;;;5030172;28;20014;-93
2021/11/26 06:15:46;;;;;;;53.25;24.33;;;;;;;;;;5025082;28;20022;-94
2021/11/26 06:18:13;;;;;;;52.92;23.00;;;;;;;;;;5021824;28;20088;-95
2021/11/26 06:20:39;;;;;;;43.30;19.42;;;;;;;;;;5021759;28;20034;-94
2021/11/26 06:23:07;;;;;;;50.67;21.10;;;;;;;;;;5019385;28;20022;-94
2021/11/26 06:25:33;;;;;;;53.03;20.42;;;;;;;;;;5020727;28;20030;-93
2021/11/26 06:28:02;;;;;;;46.33;19.30;;;;;;;;;;5019285;28;20490;-93
2021/11/26 06:30:29;;;;;;;70.15;35.17;;;;;;;;;;5031064;28;20010;-92
2021/11/26 06:33:07;;;;;;;48.25;20.40;;;;;;;;;;5040156;28;20014;-92
2021/11/26 06:35:34;;;;;;;50.22;20.70;;;;;;;;;;5038850;28;20034;-90
2021/11/26 06:38:00;;;;;;;57.33;22.20;;;;;;;;;;5008290;28;20505;-93
2021/11/26 06:40:28;;;;;;;48.03;20.55;;;;;;;;;;5018695;28;20033;-92
2021/11/26 06:42:55;;;;;;;49.30;21.52;;;;;;;;;;5019004;28;20049;-93
2021/11/26 06:45:21;;;;;;;51.22;20.73;;;;;;;;;;5017987;28;20068;-93
2021/11/26 06:47:48;;;;;;;50.22;21.02;;;;;;;;;;5019358;28;20034;-94
2021/11/26 06:50:18;;;;;;;50.17;20.17;;;;;;;;;;5009088;28;20036;-94
2021/11/26 06:52:44;;;;;;;48.13;21.10;;;;;;;;;;4999674;28;20030;-94
2021/11/26 06:55:10;;;;;;;54.78;20.40;;;;;;;;;;4999061;28;20023;-94
2021/11/26 06:57:39;;;;;;;45.38;20.17;;;;;;;;;;4998809;28;20066;-94
2021/11/26 07:00:09;;;;;;;46.95;19.85;;;;;;;;;;4986045;28;20023;-94
2021/11/26 07:02:37;;;;;;;51.70;20.50;;;;;;;;;;5000103;28;20050;-95
2021/11/26 07:05:07;;;;;;;50.97;20.13;;;;;;;;;;4999414;28;20117;-96
2021/11/26 07:07:35;;;;;;;49.65;20.23;;;;;;;;;;5002694;28;20037;-96
2021/11/26 07:10:01;;;;;;;53.97;21.85;;;;;;;;;;4987550;28;20027;-93
2021/11/26 07:12:28;;;;;;;44.63;20.45;;;;;;;;;;5004949;28;20487;-95
2021/11/26 07:14:54;;;;;;;50.40;21.17;;;;;;;;;;4987513;28;20026;-95
2021/11/26 07:17:21;;;;;;;49.25;22.85;;;;;;;;;;5000819;28;20026;-95
2021/11/26 07:19:49;;;;;;;54.63;23.88;;;;;;;;;;4983936;28;20085;-94
2021/11/26 07:22:21;;;;;;;49.28;21.95;;;;;;;;;;4998473;28;20022;-95
2021/11/26 07:24:47;;;;;;;49.10;19.98;;;;;;;;;;4981887;28;20039;-94
2021/11/26 07:27:15;;;;;;;50.20;20.88;;;;;;;;;;5000849;28;20058;-94
2021/11/26 07:29:43;;;;;;;47.72;20.98;;;;;;;;;;5003159;28;20390;-95
2021/11/26 07:32:14;;;;;;;60.60;22.27;;;;;;;;;;4986388;28;20121;-95
2021/11/26 07:34:54;;;;;;;50.88;23.60;;;;;;;;;;4984396;28;20049;-94
2021/11/26 07:37:20;;;;;;;53.90;23.88;;;;;;;;;;5003016;28;20034;-93
2021/11/26 07:39:47;;;;;;;54.50;24.45;;;;;;;;;;5004295;28;20073;-96
2021/11/26 07:42:16;;;;;;;54.35;27.58;;;;;;;;;;5001622;28;20030;-94
2021/11/26 07:44:42;;;;;;;52.85;21.92;;;;;;;;;;4999458;28;20022;-95
2021/11/26 07:47:11;;;;;;;45.58;20.05;;;;;;;;;;4999480;28;20125;-92
2021/11/26 07:49:38;;;;;;;49.95;21.17;;;;;;;;;;4997964;28;20030;-95
2021/11/26 07:52:05;;;;;;;52.03;20.23;;;;;;;;;;4999986;28;20054;-94
2021/11/26 07:54:32;;;;;;;48.60;20.33;;;;;;;;;;5001164;28;20041;-95
2021/11/26 07:57:03;;;;;;;47.10;20.70;;;;;;;;;;5003267;28;20025;-95
2021/11/26 07:59:30;;;;;;;53.25;19.67;;;;;;;;;;5001205;28;20570;-92
2021/11/26 08:01:57;;;;;;;47.92;19.73;;;;;;;;;;4998106;28;20026;-93
2021/11/26 08:04:24;;;;;;;49.47;20.83;;;;;;;;;;5001122;28;20039;-94
2021/11/26 08:06:52;;;;;;;49.20;19.83;;;;;;;;;;4984751;28;20030;-95
2021/11/26 08:09:19;;;;;;;57.80;20.70;;;;;;;;;;5001588;28;20105;-94
2021/11/26 08:11:46;;;;;;;48.00;20.02;;;;;;;;;;5000977;28;20045;-94
2021/11/26 08:14:13;;;;;;;44.28;18.52;;;;;;;;;;5000129;28;20065;-94
2021/11/26 08:16:39;;;;;;;44.58;19.50;;;;;;;;;;5001083;28;20027;-95
2021/11/26 08:19:06;;;;;;;42.63;20.17;;;;;;;;;;5000339;28;20040;-95
2021/11/26 08:21:34;;;;;;;48.00;19.67;;;;;;;;;;4999610;28;20069;-94
2021/11/26 08:24:03;;;;;;;46.38;20.13;;;;;;;;;;5001535;28;20026;-94
2021/11/26 08:26:36;;;;;;;48.00;20.23;;;;;;;;;;5000917;28;20065;-96
2021/11/26 08:29:03;;;;;;;46.90;19.88;;;;;;;;;;5002461;28;20090;-93
2021/11/26 08:31:30;;;;;;;45.85;19.50;;;;;;;;;;5003726;28;20085;-96
2021/11/26 08:34:02;;;;;;;49.60;19.25;;;;;;;;;;5007214;28;20026;-93
2021/11/26 08:36:45;;;;;;;46.35;19.80;;;;;;;;;;5005732;28;20014;-96
2021/11/26 08:39:12;;;;;;;48.72;20.00;;;;;;;;;;5008220;28;20034;-95
2021/11/26 08:41:55;;;;;;;50.13;20.92;;;;;;;;;;4990547;28;20034;-95
2021/11/26 08:44:23;;;;;;;50.63;20.15;;;;;;;;;;5005654;28;20037;-96
2021/11/26 08:46:55;;;;;;;48.13;20.20;;;;;;;;;;5002833;28;20035;-96
2021/11/26 08:49:21;;;;;;;44.78;18.92;;;;;;;;;;4999988;28;20027;-90
2021/11/26 08:51:48;;;;;;;45.13;18.70;;;;;;;;;;5011966;28;20033;-90
2021/11/26 08:54:14;;;;;;;42.38;19.17;;;;;;;;;;5018500;28;20022;-87
2021/11/26 08:56:44;;;;;;;43.72;20.10;;;;;;;;;;5017798;28;20015;-93
2021/11/26 08:59:10;;;;;;;57.20;20.90;;;;;;;;;;5000330;28;20030;-94
2021/11/26 09:01:37;;;;;;;49.17;20.67;;;;;;;;;;4996580;28;20035;-94
2021/11/26 09:04:05;;;;;;;50.45;21.58;;;;;;;;;;4996653;28;20077;-94
2021/11/26 09:06:31;;;;;;;45.40;20.45;;;;;;;;;;4998395;28;20029;-94
2021/11/26 09:08:58;;;;;;;52.28;21.02;;;;;;;;;;5001144;28;20399;-94
2021/11/26 09:11:24;;;;;;;45.80;19.88;;;;;;;;;;5000994;28;20027;-87
2021/11/26 09:13:51;;;;;;;52.10;20.98;;;;;;;;;;5000579;28;20038;-92
2021/11/26 09:16:17;;;;;;;45.38;21.27;;;;;;;;;;5000599;28;20065;-95
2021/11/26 09:18:48;;;;;;;54.80;21.05;;;;;;;;;;5000125;28;20034;-94
2021/11/26 09:21:14;;;;;;;48.08;21.08;;;;;;;;;;4999695;28;20056;-95
2021/11/26 09:23:42;;;;;;;49.05;21.58;;;;;;;;;;5002084;28;20045;-92
2021/11/26 09:26:08;;;;;;;44.63;20.58;;;;;;;;;;5001268;28;20037;-95
2021/11/26 09:28:34;;;;;;;53.10;21.40;;;;;;;;;;4999751;28;20042;-95
2021/11/26 09:31:02;;;;;;;56.17;22.48;;;;;;;;;;5003296;28;20037;-92
2021/11/26 09:33:35;;;;;;;50.85;22.60;;;;;;;;;;4973869;28;20585;-94
2021/11/26 09:36:06;;;;;;;45.97;21.48;;;;;;;;;;5002910;28;20110;-93
2021/11/26 09:38:33;;;;;;;50.10;21.17;;;;;;;;;;5002924;28;20081;-93
2021/11/26 09:40:59;;;;;;;50.05;20.83;;;;;;;;;;5001268;28;20062;-91
2021/11/26 09:43:26;;;;;;;52.42;22.55;;;;;;;;;;5000092;28;20050;-94
2021/11/26 09:45:53;;;;;;;47.75;20.65;;;;;;;;;;4998919;28;20062;-94
2021/11/26 09:48:33;;;;;;;50.88;22.13;;;;;;;;;;5000480;28;20104;-96
2021/11/26 09:50:59;;;;;;;48.53;20.92;;;;;;;;;;5000052;28;20471;-95
2021/11/26 09:53:27;;;;;;;57.22;23.63;;;;;;;;;;5000661;28;20034;-95
2021/11/26 09:55:54;;;;;;;49.85;20.50;;;;;;;;;;5001357;28;20022;-95
2021/11/26 09:58:22;;;;;;;48.42;21.48;;;;;;;;;;4999345;28;20034;-94
2021/11/26 10:00:50;;;;;;;43.90;20.52;;;;;;;;;;4985519;28;20035;-94
2021/11/26 10:03:17;;;;;;;44.75;21.13;;;;;;;;;;5001411;28;20046;-93
2021/11/26 10:05:45;;;;;;;49.75;22.50;;;;;;;;;;5000304;28;20034;-94
2021/11/26 10:08:12;;;;;;;54.45;21.95;;;;;;;;;;4999547;28;20038;-94
2021/11/26 10:10:41;;;;;;;51.00;21.33;;;;;;;;;;5001119;28;20380;-94
2021/11/26 10:13:12;;;;;;;43.00;20.60;;;;;;;;;;5000281;28;20038;-96
2021/11/26 10:15:40;;;;;;;43.97;20.08;;;;;;;;;;5000071;28;20459;-96
2021/11/26 10:18:08;;;;;;;44.22;20.58;;;;;;;;;;4998885;28;20394;-94
2021/11/26 10:20:35;;;;;;;59.40;24.33;;;;;;;;;;4998875;28;20121;-92
2021/11/26 10:23:06;;;;;;;58.47;25.95;;;;;;;;;;5000217;28;20022;-95
2021/11/26 10:25:33;;;;;;;49.83;22.30;;;;;;;;;;4983922;28;20030;-93
2021/11/26 10:28:03;;;;;;;49.40;20.88;;;;;;;;;;5002034;28;20035;-94
2021/11/26 10:30:38;;;;;;;47.83;21.05;;;;;;;;;;4998554;28;20093;-95
2021/11/26 10:33:07;;;;;;;74.05;28.42;;;;;;;;;;4998879;28;20053;-92
2021/11/26 10:35:54;;;;;;;60.88;25.17;;;;;;;;;;4998719;28;20026;-95
2021/11/26 10:38:23;;;;;;;44.08;19.33;;;;;;;;;;4999868;28;20034;-93
2021/11/26 10:40:55;;;;;;;43.97;18.65;;;;;;;;;;4998672;28;20022;-94
2021/11/26 10:43:26;;;;;;;44.25;18.98;;;;;;;;;;5000036;28;20038;-93
2021/11/26 10:48:47;;;;;;;48.03;19.88;;;;;;;;;;4985318;28;20050;-95
2021/11/26 10:59:10;;;;;;;66.90;24.85;;;;;;;;;;5014834;28;20058;-96
2021/11/26 11:01:46;;;;;;;54.13;20.80;;;;;;;;;;4992048;28;20038;-96
2021/11/26 11:04:34;;;;;;;48.22;19.67;;;;;;;;;;4984344;28;20066;-96
2021/11/26 11:07:03;;;;;;;43.15;19.73;;;;;;;;;;4989756;28;20022;-95
2021/11/26 11:09:40;;;;;;;40.78;17.98;;;;;;;;;;5000634;28;20011;-94
2021/11/26 11:12:09;;;;;;;38.55;17.67;;;;;;;;;;5000524;28;20035;-94
2021/11/26 11:14:36;;;;;;;40.15;18.10;;;;;;;;;;4969809;28;20041;-96
2021/11/26 11:17:03;;;;;;;37.50;17.33;;;;;;;;;;4981871;28;20027;-95
2021/11/26 11:19:30;;;;;;;44.40;18.27;;;;;;;;;;4981575;28;20027;-95
2021/11/26 11:21:57;;;;;;;39.83;17.95;;;;;;;;;;4980667;28;20114;-96
2021/11/26 11:24:24;;;;;;;43.08;17.55;;;;;;;;;;4965096;28;20031;-95
2021/11/26 11:26:52;;;;;;;43.50;18.02;;;;;;;;;;4965703;28;20047;-96
2021/11/26 11:29:24;;;;;;;40.65;18.90;;;;;;;;;;4980613;28;20065;-94
2021/11/26 11:31:51;;;;;;;45.45;19.95;;;;;;;;;;4980901;28;20030;-95
2021/11/26 11:34:20;;;;;;;50.58;21.52;;;;;;;;;;4965874;28;20071;-96
2021/11/26 11:36:47;;;;;;;42.25;18.23;;;;;;;;;;4965877;28;20035;-96
2021/11/26 11:39:13;;;;;;;46.33;20.15;;;;;;;;;;4964919;28;20035;-94
2021/11/26 11:41:50;;;;;;;44.33;19.60;;;;;;;;;;4981162;28;20122;-95
2021/11/26 11:44:52;;;;;;;38.67;17.10;;;;;;;;;;4983092;28;20035;-96
2021/11/26 11:47:25;;;;;;;44.10;18.33;;;;;;;;;;4979755;28;20051;-96
2021/11/26 11:50:05;;;;;;;40.55;16.88;;;;;;;;;;4966993;28;20058;-96
2021/11/26 11:52:57;;;;;;;39.47;17.40;;;;;;;;;;4982574;28;20031;-96
2021/11/26 11:55:30;;;;;;;38.95;17.77;;;;;;;;;;4965240;28;20039;-96
2021/11/26 11:58:29;;;;;;;39.28;18.20;;;;;;;;;;4982299;28;20030;-96
2021/11/26 12:01:20;;;;;;;36.72;16.52;;;;;;;;;;4981902;28;20057;-96
2021/11/26 12:03:52;;;;;;;33.63;15.95;;;;;;;;;;4997482;28;20090;-95
2021/11/26 12:06:37;;;;;;;36.55;17.15;;;;;;;;;;5002559;28;20031;-96
2021/11/26 12:09:04;;;;;;;36.50;17.65;;;;;;;;;;5000827;28;20034;-96
2021/11/26 12:11:33;;;;;;;37.35;16.52;;;;;;;;;;4984815;28;20019;-96
2021/11/26 12:14:01;;;;;;;35.67;15.93;;;;;;;;;;5000889;28;20026;-95
2021/11/26 12:16:29;;;;;;;34.95;15.85;;;;;;;;;;5000223;28;20471;-96
2021/11/26 12:18:55;;;;;;;36.33;15.55;;;;;;;;;;4999975;28;20042;-95
2021/11/26 12:21:25;;;;;;;35.45;16.13;;;;;;;;;;5001707;28;20018;-96
2021/11/26 12:24:26;;;;;;;33.58;15.93;;;;;;;;;;5002850;28;20525;-96
2021/11/26 12:27:16;;;;;;;39.47;16.48;;;;;;;;;;4985751;28;20057;-94
2021/11/26 12:29:47;;;;;;;35.33;15.35;;;;;;;;;;5004536;28;20061;-92
2021/11/26 12:32:17;;;;;;;31.80;15.43;;;;;;;;;;5018758;28;20026;-93
2021/11/26 12:34:50;;;;;;;35.17;15.75;;;;;;;;;;5018658;28;20011;-93
2021/11/26 12:37:18;;;;;;;32.75;14.77;;;;;;;;;;5018367;28;20022;-92
2021/11/26 12:39:55;;;;;;;33.72;15.80;;;;;;;;;;5002037;28;20089;-94
2021/11/26 12:42:22;;;;;;;33.65;13.30;;;;;;;;;;5020648;28;20010;-94
2021/11/26 12:45:12;;;;;;;34.50;14.73;;;;;;;;;;5021402;28;20030;-96
2021/11/26 12:47:44;;;;;;;37.88;12.40;;;;;;;;;;5003610;28;20054;-94
2021/11/26 12:53:05;;;;;;;27.58;12.43;;;;;;;;;;5020871;28;20076;-95
2021/11/26 12:55:53;;;;;;;26.35;11.80;;;;;;;;;;5006054;28;20053;-95
2021/11/26 12:58:24;;;;;;;27.20;12.15;;;;;;;;;;5019194;28;20379;-94
2021/11/26 13:00:56;;;;;;;26.45;12.27;;;;;;;;;;5017429;28;20030;-94
2021/11/26 13:03:26;;;;;;;25.33;10.73;;;;;;;;;;5004655;28;20043;-96
2021/11/26 13:05:53;;;;;;;24.65;11.05;;;;;;;;;;5001387;28;20049;-95
2021/11/26 13:08:41;;;;;;;22.23;10.18;;;;;;;;;;4990576;28;20049;-96
2021/11/26 13:11:13;;;;;;;21.02;10.25;;;;;;;;;;5006295;28;20027;-96
2021/11/26 13:13:39;;;;;;;22.60;11.65;;;;;;;;;;4990917;28;20015;-96
2021/11/26 13:16:13;;;;;;;23.38;11.23;;;;;;;;;;5008821;28;20030;-95
2021/11/26 13:18:48;;;;;;;28.63;12.48;;;;;;;;;;4988747;28;20058;-95
2021/11/26 13:21:25;;;;;;;27.52;12.10;;;;;;;;;;5005359;28;20046;-96
2021/11/26 13:24:11;;;;;;;24.70;12.30;;;;;;;;;;5004974;28;20039;-91
2021/11/26 13:29:25;;;;;;;22.35;10.43;;;;;;;;;;5407026;22;20056;-94
2021/11/26 13:31:55;;;;;;;23.85;11.13;;;;;;;;;;5024021;28;20037;-87
2021/11/26 13:34:37;;;;;;;24.35;11.27;;;;;;;;;;5010372;28;20048;-95
2021/11/26 13:37:29;;;;;;;22.33;10.48;;;;;;;;;;5041336;28;20049;-95
2021/11/26 13:40:01;;;;;;;25.50;10.38;;;;;;;;;;5048996;28;20025;-95
2021/11/26 13:42:41;;;;;;;28.48;12.07;;;;;;;;;;5042224;28;20116;-95
2021/11/26 13:45:10;;;;;;;28.65;13.10;;;;;;;;;;5040056;28;20084;-94
2021/11/26 13:47:39;;;;;;;26.88;12.88;;;;;;;;;;5040306;28;20042;-94
2021/11/26 13:50:08;;;;;;;27.65;12.55;;;;;;;;;;5040795;28;20026;-94
2021/11/26 13:52:34;;;;;;;28.08;13.30;;;;;;;;;;5039569;28;20021;-95
2021/11/26 13:55:00;;;;;;;25.42;11.73;;;;;;;;;;5005795;28;20120;-96
2021/11/26 13:57:28;;;;;;;30.15;12.40;;;;;;;;;;5040751;28;20006;-94
2021/11/26 14:00:08;;;;;;;26.20;11.02;;;;;;;;;;5039977;28;20033;-94
2021/11/26 14:02:44;;;;;;;23.85;10.25;;;;;;;;;;5039546;28;20080;-90
2021/11/26 14:05:11;;;;;;;19.70;9.82;;;;;;;;;;5039011;28;20021;-94
2021/11/26 14:07:37;;;;;;;18.45;8.35;;;;;;;;;;5039657;28;20072;-96
2021/11/26 15:24:41;;;;;;;2.72;1.20;;;;;;;;;;5033290;28;20110;-88
2021/11/26 15:27:16;;;;;;;2.00;1.30;;;;;;;;;;5033358;28;20040;-90
2021/11/26 15:30:06;;;;;;;3.92;1.38;;;;;;;;;;5027912;28;20041;-88
2021/11/26 15:32:40;;;;;;;6.18;4.60;;;;;;;;;;5036153;28;20037;-88
2021/11/26 15:35:43;;;;;;;2.00;1.30;;;;;;;;;;5034176;28;20060;-90
2021/11/26 15:38:52;;;;;;;2.72;1.10;;;;;;;;;;5020380;28;20044;-90
2021/11/26 15:41:59;;;;;;;3.03;1.15;;;;;;;;;;4993680;28;20019;-88
2021/11/26 15:45:20;;;;;;;1.85;1.00;;;;;;;;;;4983815;28;20094;-89
2021/11/26 15:54:27;;;;;;;2.30;1.10;;;;;;;;;;4994134;28;20129;-92
2021/11/26 15:56:56;;;;;;;1.63;0.98;;;;;;;;;;4977895;28;20054;-94
2021/11/26 15:59:28;;;;;;;2.50;1.20;;;;;;;;;;4990842;28;20043;-94
2021/11/26 16:01:54;;;;;;;7.57;1.42;;;;;;;;;;4970333;28;20043;-90
2021/11/26 16:04:21;;;;;;;3.75;1.40;;;;;;;;;;4958972;28;20031;-93
2021/11/26 16:06:50;;;;;;;1.92;0.95;;;;;;;;;;5026040;28;20060;-93
2021/11/26 16:09:51;;;;;;;1.67;0.88;;;;;;;;;;5022594;28;20038;-90
2021/11/26 16:12:21;;;;;;;1.70;0.80;;;;;;;;;;5024325;28;20034;-89
2021/11/26 16:14:49;;;;;;;1.63;0.77;;;;;;;;;;5012041;28;20014;-88
2021/11/26 16:17:27;;;;;;;2.50;0.57;;;;;;;;;;5030957;28;20037;-92
2021/11/26 16:20:03;;;;;;;0.57;0.20;;;;;;;;;;5018827;28;20044;-89
2021/11/26 16:22:36;;;;;;;0.60;0.40;;;;;;;;;;5010056;28;20050;-92
2021/11/26 16:25:16;;;;;;;0.55;0.25;;;;;;;;;;5029716;28;20058;-91
2021/11/26 16:27:50;;;;;;;0.63;0.32;;;;;;;;;;5022312;28;20069;-89
2021/11/26 16:33:52;;;;;;;1.67;0.63;;;;;;;;;;5036273;28;20028;-92
2021/11/26 16:36:29;;;;;;;1.73;0.65;;;;;;;;;;5027962;28;20042;-92
2021/11/26 16:39:31;;;;;;;2.22;1.00;;;;;;;;;;5032683;28;20109;-90
2021/11/26 16:42:12;;;;;;;1.17;0.55;;;;;;;;;;5030007;28;20169;-94
2021/11/26 16:44:45;;;;;;;3.30;0.88;;;;;;;;;;5010070;28;20056;-92
2021/11/26 16:47:24;;;;;;;2.53;0.60;;;;;;;;;;5001624;28;20069;-89
2021/11/26 16:50:23;;;;;;;1.77;0.65;;;;;;;;;;5034262;28;20026;-91
2021/11/26 16:52:54;;;;;;;2.95;1.10;;;;;;;;;;5023039;28;20022;-91
2021/11/26 16:55:24;;;;;;;3.42;0.95;;;;;;;;;;5033032;28;20018;-93
2021/11/26 16:57:54;;;;;;;2.13;1.13;;;;;;;;;;5035011;28;20018;-94
2021/11/26 17:00:24;;;;;;;2.75;1.10;;;;;;;;;;5029959;28;20038;-90